sensor_id;sensor_type;location;lat;lon;timestamp;temperature;humidity
45729;DHT22;31439;53.512;10.206;2022-08-19T00:00:17;20.40;99.90
45729;DHT22;31439;53.512;10.206;2022-08-19T00:02:43;20.40;99.90
45729;DHT22;31439;53.512;10.206;2022-08-19T00:05:11;20.40;99.90
45729;DHT22;31439;53.512;10.206;2022-08-19T00:07:38;20.40;99.90
45729;DHT22;31439;53.512;10.206;2022-08-19T00:10:05;20.40;99.90
45729;DHT22;31439;53.512;10.206;2022-08-19T00:12:31;20.40;99.90
45729;DHT22;31439;53.512;10.206;2022-08-19T00:14:57;20.30;99.90
45729;DHT22;31439;53.512;10.206;2022-08-19T00:17:23;20.30;99.90
45729;DHT22;31439;53.512;10.206;2022-08-19T00:19:48;20.40;99.90
45729;DHT22;31439;53.512;10.206;2022-08-19T00:22:14;20.30;99.90
45729;DHT22;31439;53.512;10.206;2022-08-19T00:24:41;20.30;99.90
45729;DHT22;31439;53.512;10.206;2022-08-19T00:27:08;20.30;99.90
45729;DHT22;31439;53.512;10.206;2022-08-19T00:29:34;20.30;99.90
45729;DHT22;31439;53.512;10.206;2022-08-19T00:32:00;20.30;99.90
45729;DHT22;31439;53.512;10.206;2022-08-19T00:34:26;20.30;99.90
45729;DHT22;31439;53.512;10.206;2022-08-19T00:36:55;20.30;99.90
45729;DHT22;31439;53.512;10.206;2022-08-19T00:39:21;20.20;99.90
45729;DHT22;31439;53.512;10.206;2022-08-19T00:41:48;20.30;99.90
45729;DHT22;31439;53.512;10.206;2022-08-19T00:44:20;20.20;99.90
45729;DHT22;31439;53.512;10.206;2022-08-19T00:46:47;20.20;99.90
45729;DHT22;31439;53.512;10.206;2022-08-19T00:49:38;20.30;99.90
45729;DHT22;31439;53.512;10.206;2022-08-19T00:52:12;20.30;99.90
45729;DHT22;31439;53.512;10.206;2022-08-19T00:54:39;20.20;99.90
45729;DHT22;31439;53.512;10.206;2022-08-19T00:57:09;20.20;99.90
45729;DHT22;31439;53.512;10.206;2022-08-19T00:59:36;20.20;99.90
45729;DHT22;31439;53.512;10.206;2022-08-19T01:02:04;20.30;99.90
45729;DHT22;31439;53.512;10.206;2022-08-19T01:04:30;20.30;99.90
45729;DHT22;31439;53.512;10.206;2022-08-19T01:06:56;20.30;99.90
45729;DHT22;31439;53.512;10.206;2022-08-19T01:09:22;20.30;99.90
45729;DHT22;31439;53.512;10.206;2022-08-19T01:11:48;20.40;99.90
45729;DHT22;31439;53.512;10.206;2022-08-19T01:14:15;20.30;99.90
45729;DHT22;31439;53.512;10.206;2022-08-19T01:16:43;20.30;99.90
45729;DHT22;31439;53.512;10.206;2022-08-19T01:19:30;20.30;99.90
45729;DHT22;31439;53.512;10.206;2022-08-19T01:22:16;20.30;99.90
45729;DHT22;31439;53.512;10.206;2022-08-19T01:24:45;20.20;99.90
45729;DHT22;31439;53.512;10.206;2022-08-19T01:27:10;20.10;99.90
45729;DHT22;31439;53.512;10.206;2022-08-19T01:29:40;20.10;99.90
45729;DHT22;31439;53.512;10.206;2022-08-19T01:32:07;20.10;99.90
45729;DHT22;31439;53.512;10.206;2022-08-19T01:34:34;20.10;99.90
45729;DHT22;31439;53.512;10.206;2022-08-19T01:37:01;20.10;99.90
45729;DHT22;31439;53.512;10.206;2022-08-19T01:39:30;20.10;99.90
45729;DHT22;31439;53.512;10.206;2022-08-19T01:41:56;20.10;99.90
45729;DHT22;31439;53.512;10.206;2022-08-19T01:44:21;20.10;99.90
45729;DHT22;31439;53.512;10.206;2022-08-19T01:46:50;20.10;99.90
45729;DHT22;31439;53.512;10.206;2022-08-19T01:49:21;20.10;99.90
45729;DHT22;31439;53.512;10.206;2022-08-19T01:51:48;20.10;99.90
45729;DHT22;31439;53.512;10.206;2022-08-19T01:54:17;20.00;99.90
45729;DHT22;31439;53.512;10.206;2022-08-19T01:56:43;20.00;99.90
45729;DHT22;31439;53.512;10.206;2022-08-19T01:59:12;20.00;99.90
45729;DHT22;31439;53.512;10.206;2022-08-19T02:01:39;20.00;99.90
45729;DHT22;31439;53.512;10.206;2022-08-19T02:04:05;20.10;99.90
45729;DHT22;31439;53.512;10.206;2022-08-19T02:06:31;20.00;99.90
45729;DHT22;31439;53.512;10.206;2022-08-19T02:08:57;20.10;99.90
45729;DHT22;31439;53.512;10.206;2022-08-19T02:11:31;20.00;99.90
45729;DHT22;31439;53.512;10.206;2022-08-19T02:13:59;20.00;99.90
45729;DHT22;31439;53.512;10.206;2022-08-19T02:16:25;20.00;99.90
45729;DHT22;31439;53.512;10.206;2022-08-19T02:18:51;20.10;99.90
45729;DHT22;31439;53.512;10.206;2022-08-19T02:21:18;20.00;99.90
45729;DHT22;31439;53.512;10.206;2022-08-19T02:23:45;19.90;99.90
45729;DHT22;31439;53.512;10.206;2022-08-19T02:26:11;19.90;99.90
45729;DHT22;31439;53.512;10.206;2022-08-19T02:28:39;19.90;99.90
45729;DHT22;31439;53.512;10.206;2022-08-19T02:31:12;19.90;99.90
45729;DHT22;31439;53.512;10.206;2022-08-19T02:33:40;19.90;99.90
45729;DHT22;31439;53.512;10.206;2022-08-19T02:36:07;20.00;99.90
45729;DHT22;31439;53.512;10.206;2022-08-19T02:38:34;20.00;99.90
45729;DHT22;31439;53.512;10.206;2022-08-19T02:41:07;20.00;99.90
45729;DHT22;31439;53.512;10.206;2022-08-19T02:43:35;20.00;99.90
45729;DHT22;31439;53.512;10.206;2022-08-19T02:46:12;20.00;99.90
45729;DHT22;31439;53.512;10.206;2022-08-19T02:48:38;20.00;99.90
45729;DHT22;31439;53.512;10.206;2022-08-19T02:51:04;19.90;99.90
45729;DHT22;31439;53.512;10.206;2022-08-19T02:53:30;19.90;99.90
45729;DHT22;31439;53.512;10.206;2022-08-19T02:55:56;19.90;99.90
45729;DHT22;31439;53.512;10.206;2022-08-19T02:58:22;19.90;99.90
45729;DHT22;31439;53.512;10.206;2022-08-19T03:00:50;19.90;99.90
45729;DHT22;31439;53.512;10.206;2022-08-19T03:03:18;19.90;99.90
45729;DHT22;31439;53.512;10.206;2022-08-19T03:05:44;20.00;99.90
45729;DHT22;31439;53.512;10.206;2022-08-19T03:08:12;20.00;99.90
45729;DHT22;31439;53.512;10.206;2022-08-19T03:10:44;20.00;99.90
45729;DHT22;31439;53.512;10.206;2022-08-19T03:13:16;19.90;99.90
45729;DHT22;31439;53.512;10.206;2022-08-19T03:15:44;19.80;99.90
45729;DHT22;31439;53.512;10.206;2022-08-19T03:18:10;19.90;99.90
45729;DHT22;31439;53.512;10.206;2022-08-19T03:20:44;19.90;99.90
45729;DHT22;31439;53.512;10.206;2022-08-19T03:23:11;19.90;99.90
45729;DHT22;31439;53.512;10.206;2022-08-19T03:25:43;19.90;99.90
45729;DHT22;31439;53.512;10.206;2022-08-19T03:28:10;19.90;99.90
45729;DHT22;31439;53.512;10.206;2022-08-19T03:30:37;19.90;99.90
45729;DHT22;31439;53.512;10.206;2022-08-19T03:33:05;19.90;99.90
45729;DHT22;31439;53.512;10.206;2022-08-19T03:35:30;19.90;99.90
45729;DHT22;31439;53.512;10.206;2022-08-19T03:37:58;19.80;99.90
45729;DHT22;31439;53.512;10.206;2022-08-19T03:40:24;19.80;99.90
45729;DHT22;31439;53.512;10.206;2022-08-19T03:42:50;19.80;99.90
45729;DHT22;31439;53.512;10.206;2022-08-19T03:45:16;19.80;99.90
45729;DHT22;31439;53.512;10.206;2022-08-19T03:47:42;19.90;99.90
45729;DHT22;31439;53.512;10.206;2022-08-19T03:50:08;19.90;99.90
45729;DHT22;31439;53.512;10.206;2022-08-19T03:52:34;19.90;99.90
45729;DHT22;31439;53.512;10.206;2022-08-19T03:55:02;19.90;99.90
45729;DHT22;31439;53.512;10.206;2022-08-19T03:57:27;19.90;99.90
45729;DHT22;31439;53.512;10.206;2022-08-19T03:59:53;19.90;99.90
45729;DHT22;31439;53.512;10.206;2022-08-19T04:02:18;19.80;99.90
45729;DHT22;31439;53.512;10.206;2022-08-19T04:04:44;19.80;99.90
45729;DHT22;31439;53.512;10.206;2022-08-19T04:07:12;19.80;99.90
45729;DHT22;31439;53.512;10.206;2022-08-19T04:09:41;19.80;99.90
45729;DHT22;31439;53.512;10.206;2022-08-19T04:12:07;19.80;99.90
45729;DHT22;31439;53.512;10.206;2022-08-19T04:14:34;19.80;99.90
45729;DHT22;31439;53.512;10.206;2022-08-19T04:17:00;19.80;99.90
45729;DHT22;31439;53.512;10.206;2022-08-19T04:19:30;19.70;99.90
45729;DHT22;31439;53.512;10.206;2022-08-19T04:21:56;19.70;99.90
45729;DHT22;31439;53.512;10.206;2022-08-19T04:24:22;19.70;99.90
45729;DHT22;31439;53.512;10.206;2022-08-19T04:26:48;19.70;99.90
45729;DHT22;31439;53.512;10.206;2022-08-19T04:29:23;19.80;99.90
45729;DHT22;31439;53.512;10.206;2022-08-19T04:31:51;19.70;99.90
45729;DHT22;31439;53.512;10.206;2022-08-19T04:34:20;19.70;99.90
45729;DHT22;31439;53.512;10.206;2022-08-19T04:36:50;19.70;99.90
45729;DHT22;31439;53.512;10.206;2022-08-19T04:39:22;19.70;99.90
45729;DHT22;31439;53.512;10.206;2022-08-19T04:42:08;19.80;99.90
45729;DHT22;31439;53.512;10.206;2022-08-19T04:44:52;19.70;99.90
45729;DHT22;31439;53.512;10.206;2022-08-19T04:47:18;19.70;99.90
45729;DHT22;31439;53.512;10.206;2022-08-19T04:49:43;19.70;99.90
45729;DHT22;31439;53.512;10.206;2022-08-19T04:54:35;19.80;99.90
45729;DHT22;31439;53.512;10.206;2022-08-19T04:57:01;19.70;99.90
45729;DHT22;31439;53.512;10.206;2022-08-19T04:59:26;19.70;99.90
45729;DHT22;31439;53.512;10.206;2022-08-19T05:01:52;19.70;99.90
45729;DHT22;31439;53.512;10.206;2022-08-19T05:04:19;19.70;99.90
45729;DHT22;31439;53.512;10.206;2022-08-19T05:06:47;19.70;99.90
45729;DHT22;31439;53.512;10.206;2022-08-19T05:09:13;19.70;99.90
45729;DHT22;31439;53.512;10.206;2022-08-19T05:11:40;19.60;99.90
45729;DHT22;31439;53.512;10.206;2022-08-19T05:14:07;19.60;99.90
45729;DHT22;31439;53.512;10.206;2022-08-19T05:16:33;19.60;99.90
45729;DHT22;31439;53.512;10.206;2022-08-19T05:18:59;19.60;99.90
45729;DHT22;31439;53.512;10.206;2022-08-19T05:21:44;19.60;99.90
45729;DHT22;31439;53.512;10.206;2022-08-19T05:24:30;19.60;99.90
45729;DHT22;31439;53.512;10.206;2022-08-19T05:27:00;19.60;99.90
45729;DHT22;31439;53.512;10.206;2022-08-19T05:29:28;19.60;99.90
45729;DHT22;31439;53.512;10.206;2022-08-19T05:31:54;19.60;99.90
45729;DHT22;31439;53.512;10.206;2022-08-19T05:34:22;19.50;99.90
45729;DHT22;31439;53.512;10.206;2022-08-19T05:36:50;19.60;99.90
45729;DHT22;31439;53.512;10.206;2022-08-19T05:39:19;19.60;99.90
45729;DHT22;31439;53.512;10.206;2022-08-19T05:41:49;19.60;99.90
45729;DHT22;31439;53.512;10.206;2022-08-19T05:44:15;19.60;99.90
45729;DHT22;31439;53.512;10.206;2022-08-19T05:46:43;19.60;99.90
45729;DHT22;31439;53.512;10.206;2022-08-19T05:49:12;19.50;99.90
45729;DHT22;31439;53.512;10.206;2022-08-19T05:51:38;19.50;99.90
45729;DHT22;31439;53.512;10.206;2022-08-19T05:54:05;19.50;99.90
45729;DHT22;31439;53.512;10.206;2022-08-19T05:56:33;19.50;99.90
45729;DHT22;31439;53.512;10.206;2022-08-19T05:59:02;19.60;99.90
45729;DHT22;31439;53.512;10.206;2022-08-19T06:01:29;19.50;99.90
45729;DHT22;31439;53.512;10.206;2022-08-19T06:03:54;19.50;99.90
45729;DHT22;31439;53.512;10.206;2022-08-19T06:06:20;19.60;99.90
45729;DHT22;31439;53.512;10.206;2022-08-19T06:08:46;19.60;99.90
45729;DHT22;31439;53.512;10.206;2022-08-19T06:14:04;19.60;99.90
45729;DHT22;31439;53.512;10.206;2022-08-19T06:16:30;19.60;99.90
45729;DHT22;31439;53.512;10.206;2022-08-19T06:19:00;19.60;99.90
45729;DHT22;31439;53.512;10.206;2022-08-19T06:21:28;19.60;99.90
45729;DHT22;31439;53.512;10.206;2022-08-19T06:23:55;19.60;99.90
45729;DHT22;31439;53.512;10.206;2022-08-19T06:26:21;19.60;99.90
45729;DHT22;31439;53.512;10.206;2022-08-19T06:28:48;19.70;99.90
45729;DHT22;31439;53.512;10.206;2022-08-19T06:31:14;19.60;99.90
45729;DHT22;31439;53.512;10.206;2022-08-19T06:33:42;19.60;99.90
45729;DHT22;31439;53.512;10.206;2022-08-19T06:36:15;19.70;99.90
45729;DHT22;31439;53.512;10.206;2022-08-19T06:38:41;19.80;99.90
45729;DHT22;31439;53.512;10.206;2022-08-19T06:41:07;19.90;99.90
45729;DHT22;31439;53.512;10.206;2022-08-19T06:43:33;19.80;99.90
45729;DHT22;31439;53.512;10.206;2022-08-19T06:45:59;19.80;99.90
45729;DHT22;31439;53.512;10.206;2022-08-19T06:48:26;19.80;99.90
45729;DHT22;31439;53.512;10.206;2022-08-19T06:50:52;19.90;99.90
45729;DHT22;31439;53.512;10.206;2022-08-19T06:53:17;20.00;99.90
45729;DHT22;31439;53.512;10.206;2022-08-19T06:55:45;20.10;99.90
45729;DHT22;31439;53.512;10.206;2022-08-19T06:58:10;20.00;99.90
45729;DHT22;31439;53.512;10.206;2022-08-19T07:00:36;20.00;99.90
45729;DHT22;31439;53.512;10.206;2022-08-19T07:03:03;20.00;99.90
45729;DHT22;31439;53.512;10.206;2022-08-19T07:05:28;20.00;99.90
45729;DHT22;31439;53.512;10.206;2022-08-19T07:07:56;19.90;99.90
45729;DHT22;31439;53.512;10.206;2022-08-19T07:10:22;19.90;99.90
45729;DHT22;31439;53.512;10.206;2022-08-19T07:12:48;19.90;99.90
45729;DHT22;31439;53.512;10.206;2022-08-19T07:15:15;19.90;99.90
45729;DHT22;31439;53.512;10.206;2022-08-19T07:17:41;19.90;99.90
45729;DHT22;31439;53.512;10.206;2022-08-19T07:20:09;19.90;99.90
45729;DHT22;31439;53.512;10.206;2022-08-19T07:22:35;19.90;99.90
45729;DHT22;31439;53.512;10.206;2022-08-19T07:25:02;19.90;99.90
45729;DHT22;31439;53.512;10.206;2022-08-19T07:27:29;19.90;99.90
45729;DHT22;31439;53.512;10.206;2022-08-19T07:29:55;20.00;99.90
45729;DHT22;31439;53.512;10.206;2022-08-19T07:32:20;20.00;99.90
45729;DHT22;31439;53.512;10.206;2022-08-19T07:34:46;20.00;99.90
45729;DHT22;31439;53.512;10.206;2022-08-19T07:37:11;19.90;99.90
45729;DHT22;31439;53.512;10.206;2022-08-19T07:39:38;19.90;99.90
45729;DHT22;31439;53.512;10.206;2022-08-19T07:42:08;19.90;99.90
45729;DHT22;31439;53.512;10.206;2022-08-19T07:44:35;19.90;99.90
45729;DHT22;31439;53.512;10.206;2022-08-19T07:47:01;19.90;99.90
45729;DHT22;31439;53.512;10.206;2022-08-19T07:49:28;19.90;99.90
45729;DHT22;31439;53.512;10.206;2022-08-19T07:51:57;19.90;99.90
45729;DHT22;31439;53.512;10.206;2022-08-19T07:54:25;19.90;99.90
45729;DHT22;31439;53.512;10.206;2022-08-19T07:56:52;20.00;99.90
45729;DHT22;31439;53.512;10.206;2022-08-19T07:59:19;20.00;99.90
45729;DHT22;31439;53.512;10.206;2022-08-19T08:01:46;20.00;99.90
45729;DHT22;31439;53.512;10.206;2022-08-19T08:04:12;20.00;99.90
45729;DHT22;31439;53.512;10.206;2022-08-19T08:06:57;20.00;99.90
45729;DHT22;31439;53.512;10.206;2022-08-19T08:09:42;20.10;99.90
45729;DHT22;31439;53.512;10.206;2022-08-19T08:12:18;20.10;99.90
45729;DHT22;31439;53.512;10.206;2022-08-19T08:14:51;20.10;99.90
45729;DHT22;31439;53.512;10.206;2022-08-19T08:17:19;20.10;99.90
45729;DHT22;31439;53.512;10.206;2022-08-19T08:19:45;20.10;99.90
45729;DHT22;31439;53.512;10.206;2022-08-19T08:22:14;20.10;99.90
45729;DHT22;31439;53.512;10.206;2022-08-19T08:25:08;20.10;99.90
45729;DHT22;31439;53.512;10.206;2022-08-19T08:27:38;20.10;99.90
45729;DHT22;31439;53.512;10.206;2022-08-19T08:30:09;20.10;99.90
45729;DHT22;31439;53.512;10.206;2022-08-19T08:32:36;20.10;99.90
45729;DHT22;31439;53.512;10.206;2022-08-19T08:35:04;20.10;99.90
45729;DHT22;31439;53.512;10.206;2022-08-19T08:37:30;20.10;99.90
45729;DHT22;31439;53.512;10.206;2022-08-19T08:39:55;20.10;99.90
45729;DHT22;31439;53.512;10.206;2022-08-19T08:42:30;20.10;99.90
45729;DHT22;31439;53.512;10.206;2022-08-19T08:45:03;20.20;99.90
45729;DHT22;31439;53.512;10.206;2022-08-19T08:47:34;20.20;99.90
45729;DHT22;31439;53.512;10.206;2022-08-19T08:50:13;20.20;99.90
45729;DHT22;31439;53.512;10.206;2022-08-19T08:52:44;20.20;99.90
45729;DHT22;31439;53.512;10.206;2022-08-19T08:55:21;20.20;99.90
45729;DHT22;31439;53.512;10.206;2022-08-19T09:00:19;20.20;99.90
45729;DHT22;31439;53.512;10.206;2022-08-19T09:02:46;20.10;99.90
45729;DHT22;31439;53.512;10.206;2022-08-19T09:05:13;20.10;99.90
45729;DHT22;31439;53.512;10.206;2022-08-19T09:15:53;20.10;99.90
45729;DHT22;31439;53.512;10.206;2022-08-19T09:18:23;20.10;99.90
45729;DHT22;31439;53.512;10.206;2022-08-19T09:20:48;20.10;99.90
45729;DHT22;31439;53.512;10.206;2022-08-19T09:23:14;20.10;99.90
45729;DHT22;31439;53.512;10.206;2022-08-19T09:25:40;20.10;99.90
45729;DHT22;31439;53.512;10.206;2022-08-19T09:28:06;20.10;99.90
45729;DHT22;31439;53.512;10.206;2022-08-19T09:30:36;20.20;99.90
45729;DHT22;31439;53.512;10.206;2022-08-19T09:33:05;20.20;99.90
45729;DHT22;31439;53.512;10.206;2022-08-19T09:35:32;20.20;99.90
45729;DHT22;31439;53.512;10.206;2022-08-19T09:37:59;20.20;99.90
45729;DHT22;31439;53.512;10.206;2022-08-19T09:40:30;20.20;99.90
45729;DHT22;31439;53.512;10.206;2022-08-19T09:42:56;20.30;99.90
45729;DHT22;31439;53.512;10.206;2022-08-19T09:45:23;20.30;99.90
45729;DHT22;31439;53.512;10.206;2022-08-19T09:47:50;20.30;99.90
45729;DHT22;31439;53.512;10.206;2022-08-19T09:50:16;20.30;99.90
45729;DHT22;31439;53.512;10.206;2022-08-19T09:52:43;20.30;99.90
45729;DHT22;31439;53.512;10.206;2022-08-19T09:55:10;20.30;99.90
45729;DHT22;31439;53.512;10.206;2022-08-19T09:57:36;20.20;99.90
45729;DHT22;31439;53.512;10.206;2022-08-19T10:00:07;20.20;99.90
45729;DHT22;31439;53.512;10.206;2022-08-19T10:02:33;20.20;99.90
45729;DHT22;31439;53.512;10.206;2022-08-19T10:05:02;20.20;99.90
45729;DHT22;31439;53.512;10.206;2022-08-19T10:07:46;20.20;99.90
45729;DHT22;31439;53.512;10.206;2022-08-19T10:10:13;20.20;99.90
45729;DHT22;31439;53.512;10.206;2022-08-19T10:12:38;20.20;99.90
45729;DHT22;31439;53.512;10.206;2022-08-19T10:15:05;20.30;99.90
45729;DHT22;31439;53.512;10.206;2022-08-19T10:17:34;20.30;99.90
45729;DHT22;31439;53.512;10.206;2022-08-19T10:20:01;20.40;99.90
45729;DHT22;31439;53.512;10.206;2022-08-19T10:22:29;20.40;99.90
45729;DHT22;31439;53.512;10.206;2022-08-19T10:25:04;20.40;99.90
45729;DHT22;31439;53.512;10.206;2022-08-19T10:27:29;20.30;99.90
45729;DHT22;31439;53.512;10.206;2022-08-19T10:29:56;20.40;99.90
45729;DHT22;31439;53.512;10.206;2022-08-19T10:32:24;20.30;99.90
45729;DHT22;31439;53.512;10.206;2022-08-19T10:34:50;20.40;99.90
45729;DHT22;31439;53.512;10.206;2022-08-19T10:37:17;20.40;99.90
45729;DHT22;31439;53.512;10.206;2022-08-19T10:39:45;20.30;99.90
45729;DHT22;31439;53.512;10.206;2022-08-19T10:42:13;20.40;99.90
45729;DHT22;31439;53.512;10.206;2022-08-19T10:44:39;20.30;99.90
45729;DHT22;31439;53.512;10.206;2022-08-19T10:47:05;20.30;99.90
45729;DHT22;31439;53.512;10.206;2022-08-19T10:49:31;20.30;99.90
45729;DHT22;31439;53.512;10.206;2022-08-19T10:51:57;20.30;99.90
45729;DHT22;31439;53.512;10.206;2022-08-19T10:54:41;20.30;99.90
45729;DHT22;31439;53.512;10.206;2022-08-19T10:57:25;20.40;99.90
45729;DHT22;31439;53.512;10.206;2022-08-19T10:59:55;20.40;99.90
45729;DHT22;31439;53.512;10.206;2022-08-19T11:02:22;20.50;99.90
45729;DHT22;31439;53.512;10.206;2022-08-19T11:04:48;20.50;99.90
45729;DHT22;31439;53.512;10.206;2022-08-19T11:07:15;20.50;99.90
45729;DHT22;31439;53.512;10.206;2022-08-19T11:09:42;20.60;99.90
45729;DHT22;31439;53.512;10.206;2022-08-19T11:12:09;20.50;99.90
45729;DHT22;31439;53.512;10.206;2022-08-19T11:14:35;20.50;99.90
45729;DHT22;31439;53.512;10.206;2022-08-19T11:17:03;20.50;99.90
45729;DHT22;31439;53.512;10.206;2022-08-19T11:19:29;20.50;99.90
45729;DHT22;31439;53.512;10.206;2022-08-19T11:21:54;20.50;99.90
45729;DHT22;31439;53.512;10.206;2022-08-19T11:24:23;20.50;99.90
45729;DHT22;31439;53.512;10.206;2022-08-19T11:26:51;20.50;99.90
45729;DHT22;31439;53.512;10.206;2022-08-19T11:29:19;20.50;99.90
45729;DHT22;31439;53.512;10.206;2022-08-19T11:31:46;20.60;99.90
45729;DHT22;31439;53.512;10.206;2022-08-19T11:34:16;20.60;99.90
45729;DHT22;31439;53.512;10.206;2022-08-19T11:36:46;20.60;99.90
45729;DHT22;31439;53.512;10.206;2022-08-19T11:42:17;20.70;99.90
45729;DHT22;31439;53.512;10.206;2022-08-19T11:45:05;20.70;99.90
45729;DHT22;31439;53.512;10.206;2022-08-19T11:47:34;20.70;99.90
45729;DHT22;31439;53.512;10.206;2022-08-19T11:49:59;20.80;99.90
45729;DHT22;31439;53.512;10.206;2022-08-19T11:52:28;20.80;99.90
45729;DHT22;31439;53.512;10.206;2022-08-19T11:54:57;20.80;99.90
45729;DHT22;31439;53.512;10.206;2022-08-19T11:57:23;20.80;99.90
45729;DHT22;31439;53.512;10.206;2022-08-19T11:59:52;20.80;99.90
45729;DHT22;31439;53.512;10.206;2022-08-19T12:02:18;20.80;99.90
45729;DHT22;31439;53.512;10.206;2022-08-19T12:04:47;20.70;99.90
45729;DHT22;31439;53.512;10.206;2022-08-19T12:07:15;20.80;99.90
45729;DHT22;31439;53.512;10.206;2022-08-19T12:09:41;20.80;99.90
45729;DHT22;31439;53.512;10.206;2022-08-19T12:12:09;20.80;99.90
45729;DHT22;31439;53.512;10.206;2022-08-19T12:14:35;20.80;99.90
45729;DHT22;31439;53.512;10.206;2022-08-19T12:17:04;20.90;99.90
45729;DHT22;31439;53.512;10.206;2022-08-19T12:19:36;21.20;99.90
45729;DHT22;31439;53.512;10.206;2022-08-19T12:22:05;21.00;99.90
45729;DHT22;31439;53.512;10.206;2022-08-19T12:24:34;21.10;99.90
45729;DHT22;31439;53.512;10.206;2022-08-19T12:27:00;21.10;99.90
45729;DHT22;31439;53.512;10.206;2022-08-19T12:29:29;21.10;99.90
45729;DHT22;31439;53.512;10.206;2022-08-19T12:31:57;21.20;99.90
45729;DHT22;31439;53.512;10.206;2022-08-19T12:34:30;21.20;99.90
45729;DHT22;31439;53.512;10.206;2022-08-19T12:37:03;21.20;99.90
45729;DHT22;31439;53.512;10.206;2022-08-19T12:39:30;21.20;99.90
45729;DHT22;31439;53.512;10.206;2022-08-19T12:41:56;21.30;99.90
45729;DHT22;31439;53.512;10.206;2022-08-19T12:44:23;21.30;99.90
45729;DHT22;31439;53.512;10.206;2022-08-19T12:46:51;21.40;99.90
45729;DHT22;31439;53.512;10.206;2022-08-19T12:49:17;21.40;99.90
45729;DHT22;31439;53.512;10.206;2022-08-19T12:51:45;21.60;99.90
45729;DHT22;31439;53.512;10.206;2022-08-19T12:54:11;22.20;99.90
45729;DHT22;31439;53.512;10.206;2022-08-19T12:56:39;22.30;99.90
45729;DHT22;31439;53.512;10.206;2022-08-19T12:59:06;22.60;99.90
45729;DHT22;31439;53.512;10.206;2022-08-19T13:01:33;22.80;99.90
45729;DHT22;31439;53.512;10.206;2022-08-19T13:03:59;23.00;99.90
45729;DHT22;31439;53.512;10.206;2022-08-19T13:06:27;23.20;99.90
45729;DHT22;31439;53.512;10.206;2022-08-19T13:08:54;23.30;99.90
45729;DHT22;31439;53.512;10.206;2022-08-19T13:11:22;23.20;99.90
45729;DHT22;31439;53.512;10.206;2022-08-19T13:13:52;23.00;99.90
45729;DHT22;31439;53.512;10.206;2022-08-19T13:16:21;22.90;99.90
45729;DHT22;31439;53.512;10.206;2022-08-19T13:18:47;23.00;99.90
45729;DHT22;31439;53.512;10.206;2022-08-19T13:21:18;23.10;99.90
45729;DHT22;31439;53.512;10.206;2022-08-19T13:23:45;23.10;99.90
45729;DHT22;31439;53.512;10.206;2022-08-19T13:26:14;23.10;99.90
45729;DHT22;31439;53.512;10.206;2022-08-19T13:28:44;22.90;99.90
45729;DHT22;31439;53.512;10.206;2022-08-19T13:31:34;22.80;99.90
